Time;durP1;ratioP1;P1;durP2;ratioP2;P2;SDS_P1;SDS_P2;PMS_P1;PMS_P2;Temp;Humidity;BMP_temperature;BMP_pressure;BME280_temperature;BME280_humidity;BME280_pressure;Samples;Min_cycle;Max_cycle;Signal;HPM_P1;HPM_P2
2022/04/27 00:01:11;;;;;;;5.13;4.63;;;;;;;8.55;97.39;96838.25;5073875;28;20222;-51
2022/04/27 00:03:37;;;;;;;5.27;4.80;;;;;;;8.59;97.18;96834.41;5074241;28;20248;-51
2022/04/27 00:06:04;;;;;;;6.67;5.63;;;;;;;8.65;96.11;96841.81;5079816;28;20570;-53
2022/04/27 00:08:31;;;;;;;7.43;5.27;;;;;;;8.67;95.86;96837.28;5088512;28;20194;-52
2022/04/27 00:10:57;;;;;;;6.70;6.10;;;;;;;8.60;96.45;96836.09;5090011;28;20219;-50
2022/04/27 00:13:24;;;;;;;6.27;5.67;;;;;;;8.66;96.92;96838.22;5080176;28;20216;-50
2022/04/27 00:15:51;;;;;;;6.40;5.60;;;;;;;8.66;96.14;96835.59;5074959;28;20206;-51
2022/04/27 00:18:18;;;;;;;6.30;5.80;;;;;;;8.63;97.16;96838.47;5074340;28;20210;-52
2022/04/27 00:20:44;;;;;;;5.23;4.80;;;;;;;8.62;97.58;96834.16;5073086;28;20207;-51
2022/04/27 00:23:11;;;;;;;6.17;4.97;;;;;;;8.65;97.08;96833.91;5073605;28;20191;-51
2022/04/27 00:25:38;;;;;;;5.17;4.73;;;;;;;8.68;96.30;96836.28;5074458;28;20194;-51
2022/04/27 00:28:05;;;;;;;5.30;4.90;;;;;;;8.59;96.11;96842.31;5074139;28;20191;-51
2022/04/27 00:30:31;;;;;;;4.87;4.47;;;;;;;8.53;96.87;96840.19;5072569;28;20760;-51
2022/04/27 00:33:00;;;;;;;5.40;5.00;;;;;;;8.57;97.21;96840.78;5073097;28;20242;-51
2022/04/27 00:35:27;;;;;;;5.30;4.90;;;;;;;8.56;97.12;96839.94;5073417;28;20291;-51
2022/04/27 00:37:53;;;;;;;5.53;5.13;;;;;;;8.54;96.97;96831.31;5073688;28;20206;-51
2022/04/27 00:40:20;;;;;;;5.30;4.90;;;;;;;8.58;96.83;96840.66;5072586;28;20217;-51
2022/04/27 00:42:46;;;;;;;5.63;5.13;;;;;;;8.46;97.99;96844.31;5073378;28;20201;-50
2022/04/27 00:45:13;;;;;;;5.27;4.83;;;;;;;8.43;99.36;96841.91;5088898;28;20183;-51
2022/04/27 00:47:39;;;;;;;6.00;5.50;;;;;;;8.43;100.00;96839.28;5073978;28;20226;-51
2022/04/27 00:50:09;;;;;;;6.93;6.33;;;;;;;8.44;100.00;96844.41;5072792;28;20205;-51
2022/04/27 00:52:35;;;;;;;7.03;6.27;;;;;;;8.52;99.81;96842.94;5073026;28;20213;-50
2022/04/27 00:55:02;;;;;;;7.80;7.10;;;;;;;8.55;99.67;96847.97;5072888;28;20207;-50
2022/04/27 00:57:30;;;;;;;6.77;6.17;;;;;;;8.48;98.91;96845.84;5072130;28;20202;-50
2022/04/27 00:59:56;;;;;;;7.57;6.87;;;;;;;8.51;99.95;96852.66;5072911;28;20263;-51
2022/04/27 01:02:23;;;;;;;7.27;6.67;;;;;;;8.47;98.81;96852.06;5072810;28;20675;-51
2022/04/27 01:04:49;;;;;;;5.87;5.27;;;;;;;8.38;99.15;96852.81;5072629;28;20202;-51
2022/04/27 01:07:17;;;;;;;6.40;5.80;;;;;;;8.39;100.00;96856.31;5070970;28;20194;-50
2022/04/27 01:09:44;;;;;;;6.13;5.60;;;;;;;8.33;100.00;96854.97;5072499;28;20586;-49
2022/04/27 01:12:11;;;;;;;6.63;5.53;;;;;;;8.35;100.00;96846.97;5073079;28;20205;-51
2022/04/27 01:14:42;;;;;;;6.30;5.67;;;;;;;8.33;98.72;96848.88;5072747;28;20241;-51
2022/04/27 01:17:08;;;;;;;6.40;5.80;;;;;;;8.25;98.36;96846.84;5072115;28;20623;-50
2022/04/27 01:19:35;;;;;;;5.43;4.93;;;;;;;8.17;99.17;96848.41;5071702;28;20852;-49
2022/04/27 01:22:06;;;;;;;5.30;4.90;;;;;;;8.18;97.75;96847.47;5072450;28;20206;-52
2022/04/27 01:24:33;;;;;;;5.87;4.80;;;;;;;8.13;97.77;96849.63;5072756;28;20528;-51
2022/04/27 01:27:00;;;;;;;5.37;4.87;;;;;;;8.11;97.44;96855.03;5072283;28;20197;-50
2022/04/27 01:29:26;;;;;;;5.47;4.97;;;;;;;8.10;97.06;96855.13;5072328;28;20202;-50
2022/04/27 01:31:54;;;;;;;5.50;5.00;;;;;;;8.06;96.94;96848.44;5071056;28;20201;-50
2022/04/27 01:34:21;;;;;;;4.90;4.50;;;;;;;8.04;96.45;96853.84;5072510;28;20279;-50
2022/04/27 01:36:48;;;;;;;5.67;5.07;;;;;;;7.98;97.14;96844.63;5072511;28;20705;-51
2022/04/27 01:39:18;;;;;;;5.77;5.30;;;;;;;7.94;97.06;96852.88;5077363;28;20198;-50
2022/04/27 01:41:45;;;;;;;6.77;5.53;;;;;;;7.92;97.51;96845.13;5077349;28;20245;-51
2022/04/27 01:44:12;;;;;;;6.17;5.33;;;;;;;7.87;97.38;96855.16;5075230;28;20559;-51
2022/04/27 01:46:39;;;;;;;5.70;5.20;;;;;;;7.91;97.24;96851.34;5072135;28;20201;-50
2022/04/27 01:49:05;;;;;;;5.97;5.47;;;;;;;7.86;99.34;96850.88;5072366;28;20212;-51
2022/04/27 01:54:17;;;;;;;6.23;5.73;;;;;;;7.74;99.43;96857.09;5072430;28;20352;-51
2022/04/27 01:56:44;;;;;;;6.43;5.93;;;;;;;7.72;100.00;96856.34;5072789;28;20201;-52
2022/04/27 01:59:12;;;;;;;6.63;6.03;;;;;;;7.66;100.00;96859.47;5071581;28;20209;-51
2022/04/27 02:01:39;;;;;;;6.90;6.30;;;;;;;7.69;100.00;96863.66;5072244;28;20191;-50
2022/04/27 02:04:06;;;;;;;7.20;6.60;;;;;;;7.65;99.22;96863.06;5073501;28;20206;-55
2022/04/27 02:06:35;;;;;;;8.17;7.47;;;;;;;7.70;98.87;96860.91;5072090;28;20613;-51
2022/04/27 02:09:04;;;;;;;8.00;7.23;;;;;;;7.57;98.61;96865.47;5071852;28;20196;-51
2022/04/27 02:11:32;;;;;;;8.63;7.63;;;;;;;7.51;100.00;96861.50;5071914;28;20225;-51
2022/04/27 02:13:58;;;;;;;9.53;8.63;;;;;;;7.44;99.45;96867.34;5071900;28;20214;-50
2022/04/27 02:16:26;;;;;;;10.00;9.10;;;;;;;7.58;98.32;96869.75;5071806;28;20210;-50
2022/04/27 02:18:54;;;;;;;10.13;9.23;;;;;;;7.48;98.91;96869.66;5071600;28;20198;-50
2022/04/27 02:21:21;;;;;;;10.07;8.77;;;;;;;7.39;98.98;96873.00;5071080;28;20201;-51
2022/04/27 02:23:50;;;;;;;9.77;8.77;;;;;;;7.31;99.52;96880.63;5071637;28;20606;-50
2022/04/27 02:26:17;;;;;;;9.30;8.40;;;;;;;7.27;100.00;96883.59;5075766;28;20214;-51
2022/04/27 02:28:46;;;;;;;9.97;9.07;;;;;;;7.24;100.00;96879.41;5085709;28;20198;-50
2022/04/27 02:31:13;;;;;;;9.97;8.83;;;;;;;7.24;100.00;96889.09;5086482;28;20205;-50
2022/04/27 02:33:40;;;;;;;10.17;9.17;;;;;;;7.19;100.00;96883.38;5082917;28;20211;-51
2022/04/27 02:36:06;;;;;;;10.43;9.43;;;;;;;7.15;98.96;96879.28;5074420;28;20706;-51
2022/04/27 02:38:33;;;;;;;10.07;9.07;;;;;;;7.07;99.47;96879.88;5071785;28;20678;-51
2022/04/27 02:40:59;;;;;;;10.70;9.60;;;;;;;7.10;99.73;96878.78;5075514;28;20206;-51
2022/04/27 02:43:27;;;;;;;11.20;10.20;;;;;;;7.05;99.10;96878.31;5075597;28;20202;-51
2022/04/27 02:45:56;;;;;;;10.27;8.97;;;;;;;6.98;99.16;96884.00;5075214;28;20492;-51
2022/04/27 02:48:23;;;;;;;10.13;9.20;;;;;;;7.04;100.00;96881.88;5075110;28;20214;-52
2022/04/27 02:53:35;;;;;;;10.63;9.53;;;;;;;7.03;99.70;96890.72;5074279;28;20209;-51
2022/04/27 02:56:03;;;;;;;11.30;10.30;;;;;;;6.96;100.00;96883.31;5073790;28;20202;-51
2022/04/27 02:58:30;;;;;;;11.80;10.67;;;;;;;6.97;100.00;96882.38;5073276;28;20634;-50
2022/04/27 03:00:57;;;;;;;12.03;10.77;;;;;;;6.89;100.00;96882.09;5074233;28;20206;-55
2022/04/27 03:03:24;;;;;;;12.70;11.40;;;;;;;6.89;100.00;96889.97;5071025;28;20210;-50
2022/04/27 03:05:50;;;;;;;11.43;10.43;;;;;;;6.83;99.99;96885.19;5071143;28;20209;-51
2022/04/27 03:08:17;;;;;;;11.97;10.47;;;;;;;6.81;100.00;96889.69;5070881;28;20550;-50
2022/04/27 03:10:43;;;;;;;11.00;9.90;;;;;;;6.78;99.87;96884.66;5071342;28;20194;-51
2022/04/27 03:13:10;;;;;;;11.03;10.03;;;;;;;6.77;99.40;96884.78;5072892;28;20627;-50
2022/04/27 03:15:36;;;;;;;10.97;9.87;;;;;;;6.66;100.00;96893.44;5072972;28;20791;-50
2022/04/27 03:18:21;;;;;;;10.83;9.87;;;;;;;6.61;100.00;96900.00;5071346;28;20619;-50
2022/04/27 03:20:49;;;;;;;10.97;9.97;;;;;;;6.60;100.00;96891.28;5071893;28;20285;-51
2022/04/27 03:23:16;;;;;;;11.67;10.57;;;;;;;6.61;100.00;96898.22;5072142;28;20222;-50
2022/04/27 03:25:42;;;;;;;11.17;10.17;;;;;;;6.54;99.97;96899.63;5072283;28;20203;-50
2022/04/27 03:28:09;;;;;;;10.40;9.50;;;;;;;6.48;100.00;96903.50;5071070;28;20199;-51
2022/04/27 03:30:35;;;;;;;11.10;10.00;;;;;;;6.47;100.00;96898.41;5071387;28;20213;-51
2022/04/27 03:33:04;;;;;;;11.13;10.03;;;;;;;6.42;100.00;96896.09;5070979;28;20639;-50
2022/04/27 03:35:32;;;;;;;11.27;10.10;;;;;;;6.42;100.00;96895.25;5070981;28;20237;-50
2022/04/27 03:37:58;;;;;;;11.40;10.27;;;;;;;6.44;100.00;96893.38;5070587;28;20209;-50
2022/04/27 03:40:25;;;;;;;10.27;9.33;;;;;;;6.41;100.00;96898.84;5071352;28;20519;-51
2022/04/27 03:42:52;;;;;;;11.07;10.03;;;;;;;6.43;100.00;96899.56;5073047;28;20272;-50
2022/04/27 03:45:20;;;;;;;11.03;10.03;;;;;;;6.41;100.00;96901.47;5074462;28;20202;-50
2022/04/27 03:47:46;;;;;;;11.40;10.40;;;;;;;6.38;100.00;96905.13;5074525;28;20229;-50
2022/04/27 03:50:15;;;;;;;11.43;10.33;;;;;;;6.41;100.00;96914.59;5074685;28;20199;-51
2022/04/27 03:52:43;;;;;;;16.80;15.00;;;;;;;6.27;100.00;96907.69;5074637;28;20206;-51
2022/04/27 03:55:10;;;;;;;12.90;11.57;;;;;;;6.27;100.00;96906.88;5073748;28;20586;-51
2022/04/27 03:57:38;;;;;;;11.73;10.63;;;;;;;6.23;100.00;96914.16;5073900;28;20232;-51
2022/04/27 04:00:08;;;;;;;11.13;10.03;;;;;;;6.25;100.00;96919.28;5073453;28;20657;-50
2022/04/27 04:02:36;;;;;;;11.10;10.00;;;;;;;6.20;100.00;96910.91;5074297;28;20199;-50
2022/04/27 04:05:02;;;;;;;13.23;9.53;;;;;;;6.17;100.00;96913.72;5073496;28;20645;-50
2022/04/27 04:07:29;;;;;;;10.97;9.87;;;;;;;6.11;100.00;96912.38;5073291;28;20195;-51
2022/04/27 04:09:57;;;;;;;10.60;9.50;;;;;;;6.13;100.00;96920.97;5074178;28;20205;-50
2022/04/27 04:12:24;;;;;;;10.47;9.50;;;;;;;6.17;100.00;96921.59;5070997;28;20222;-50
2022/04/27 04:14:51;;;;;;;10.63;9.57;;;;;;;6.12;100.00;96919.31;5073718;28;20789;-50
2022/04/27 04:17:20;;;;;;;11.13;10.13;;;;;;;6.11;100.00;96916.78;5073642;28;20748;-50
2022/04/27 04:19:46;;;;;;;11.73;10.63;;;;;;;6.12;100.00;96928.97;5073144;28;20206;-51
2022/04/27 04:22:14;;;;;;;10.80;9.80;;;;;;;6.07;100.00;96936.31;5074008;28;20209;-51
2022/04/27 04:28:29;;;;;;;11.90;10.80;;;;;;;6.13;100.00;96941.16;5073492;28;20248;-51
2022/04/27 04:30:13;;;;;;;12.13;11.00;;;;;;;6.18;100.00;96944.28;5073735;28;20202;-51
2022/04/27 04:32:40;;;;;;;12.30;11.20;;;;;;;6.16;100.00;96943.56;5072396;28;20229;-51
2022/04/27 04:35:08;;;;;;;12.73;11.53;;;;;;;6.09;100.00;96955.44;5073170;28;20554;-50
2022/04/27 04:37:35;;;;;;;12.27;11.07;;;;;;;6.11;100.00;96948.28;5072626;28;20248;-50
2022/04/27 04:40:02;;;;;;;12.33;11.17;;;;;;;6.13;100.00;96956.91;5072817;28;20555;-50
2022/04/27 04:42:29;;;;;;;13.90;11.77;;;;;;;6.15;100.00;96957.63;5072080;28;20217;-51
2022/04/27 04:44:56;;;;;;;13.53;12.10;;;;;;;6.23;100.00;96957.94;5083368;28;20210;-50
2022/04/27 04:47:23;;;;;;;12.87;11.67;;;;;;;6.25;100.00;96963.91;5089528;28;20203;-51
2022/04/27 04:49:50;;;;;;;14.07;12.60;;;;;;;6.25;100.00;96964.75;5091543;28;20174;-50
2022/04/27 04:52:16;;;;;;;12.90;11.70;;;;;;;6.35;100.00;96963.16;5084795;28;20198;-50
2022/04/27 04:54:43;;;;;;;14.27;12.80;;;;;;;6.41;100.00;96964.50;5074729;28;20249;-50
2022/04/27 04:57:09;;;;;;;13.10;11.67;;;;;;;6.62;100.00;96964.75;5074480;28;20523;-50
2022/04/27 04:59:37;;;;;;;14.70;12.40;;;;;;;6.80;100.00;96963.44;5073668;28;20194;-50
2022/04/27 05:02:05;;;;;;;13.97;12.57;;;;;;;6.98;100.00;96970.78;5073785;28;20195;-51
2022/04/27 05:04:32;;;;;;;14.43;12.03;;;;;;;7.40;97.83;96971.19;5073417;28;20214;-50
2022/04/27 05:06:59;;;;;;;13.23;12.03;;;;;;;7.71;97.29;96975.78;5073056;28;20245;-50
2022/04/27 05:09:25;;;;;;;13.03;11.83;;;;;;;7.92;93.85;96970.66;5072564;28;20622;-50
2022/04/27 05:11:52;;;;;;;13.07;11.83;;;;;;;8.19;92.16;96970.28;5073239;28;20210;-50
2022/04/27 05:14:18;;;;;;;12.27;11.07;;;;;;;8.48;90.82;96971.50;5071889;28;20833;-50
2022/04/27 05:16:46;;;;;;;11.63;10.43;;;;;;;8.72;88.09;96972.16;5072602;28;20210;-51
2022/04/27 05:19:14;;;;;;;12.07;10.97;;;;;;;8.75;89.42;96966.66;5072970;28;20199;-50
2022/04/27 05:21:40;;;;;;;11.23;10.20;;;;;;;8.98;89.66;96975.34;5074653;28;20787;-50
2022/04/27 05:24:07;;;;;;;10.70;9.70;;;;;;;8.90;87.99;96970.69;5080932;28;20214;-50
2022/04/27 05:26:33;;;;;;;10.40;9.50;;;;;;;9.05;87.26;96980.94;5081041;28;20225;-51
2022/04/27 05:31:58;;;;;;;10.37;9.47;;;;;;;9.05;88.56;96978.31;5091968;28;20274;-50
2022/04/27 05:34:25;;;;;;;9.83;8.97;;;;;;;8.99;90.20;96975.22;5091936;28;20217;-50
2022/04/27 05:36:52;;;;;;;9.93;9.13;;;;;;;9.24;88.27;96978.50;5072313;28;20230;-51
2022/04/27 05:39:23;;;;;;;9.97;9.07;;;;;;;9.35;87.88;96983.72;5072979;28;20198;-51
2022/04/27 05:41:51;;;;;;;10.67;9.67;;;;;;;9.34;87.56;96980.25;5072899;28;20581;-51
2022/04/27 05:44:19;;;;;;;10.30;9.07;;;;;;;9.71;86.44;96980.63;5072750;28;20217;-50
2022/04/27 05:46:47;;;;;;;10.97;9.97;;;;;;;10.02;83.33;96982.31;5071602;28;20264;-50
2022/04/27 05:49:14;;;;;;;9.60;8.90;;;;;;;10.14;84.58;96991.06;5073802;28;20214;-50
2022/04/27 05:51:41;;;;;;;9.70;8.90;;;;;;;10.37;82.95;96989.06;5073401;28;20200;-49
2022/04/27 05:54:07;;;;;;;9.73;8.93;;;;;;;10.30;82.74;96995.88;5074362;28;20200;-50
2022/04/27 05:56:34;;;;;;;11.13;8.80;;;;;;;10.51;81.80;96994.00;5081054;28;20217;-50
2022/04/27 05:59:01;;;;;;;9.77;8.87;;;;;;;10.72;80.97;96991.28;5080880;28;20214;-51
2022/04/27 06:01:29;;;;;;;9.87;9.07;;;;;;;10.73;80.59;96990.31;5073340;28;20620;-49
2022/04/27 06:03:57;;;;;;;10.47;9.37;;;;;;;11.01;79.53;96997.47;5072004;28;20658;-50
2022/04/27 06:06:25;;;;;;;10.40;9.50;;;;;;;11.13;76.97;96991.06;5070955;28;20626;-50
2022/04/27 06:08:52;;;;;;;9.43;8.63;;;;;;;11.57;75.14;96994.97;5072054;28;20218;-50
2022/04/27 06:11:19;;;;;;;10.80;9.80;;;;;;;11.64;75.33;96995.25;5071394;28;21280;-50
2022/04/27 06:13:46;;;;;;;10.73;9.83;;;;;;;11.74;72.37;96991.63;5071836;28;20335;-50
2022/04/27 06:16:12;;;;;;;9.97;9.10;;;;;;;11.97;74.50;96997.47;5072133;28;20225;-50
2022/04/27 06:18:40;;;;;;;12.87;11.07;;;;;;;12.13;71.55;96996.84;5072086;28;20217;-50
2022/04/27 06:21:08;;;;;;;19.60;10.17;;;;;;;12.23;70.31;96993.19;5070912;28;20305;-49
2022/04/27 06:23:36;;;;;;;10.80;8.90;;;;;;;12.46;71.82;96985.72;5071769;28;20206;-49
2022/04/27 06:26:05;;;;;;;10.10;9.10;;;;;;;12.62;71.18;96993.88;5071887;28;20413;-50
2022/04/27 06:28:32;;;;;;;10.00;8.93;;;;;;;13.02;70.23;96990.03;5072167;28;20225;-49
2022/04/27 06:30:58;;;;;;;9.60;8.53;;;;;;;13.12;67.48;96996.13;5071724;28;20195;-51
2022/04/27 06:35:40;;;;;;;9.33;8.43;;;;;;;13.33;67.33;96994.88;5136820;27;20552;-79
2022/04/27 06:38:08;;;;;;;9.00;8.23;;;;;;;13.83;65.27;96991.63;5132708;28;20188;-76
2022/04/27 06:40:35;;;;;;;8.80;8.00;;;;;;;14.18;60.69;97002.19;5135703;28;20201;-81
2022/04/27 06:43:02;;;;;;;9.10;8.30;;;;;;;13.96;65.33;96998.22;5136398;28;20238;-77
2022/04/27 06:45:28;;;;;;;8.47;7.77;;;;;;;13.99;62.30;96993.59;5118198;27;20612;-77
2022/04/27 06:47:55;;;;;;;8.40;7.60;;;;;;;14.33;63.14;97000.63;5131043;22;20225;-51
2022/04/27 06:50:22;;;;;;;9.50;8.60;;;;;;;14.60;60.82;97004.13;5085281;28;20202;-50
2022/04/27 06:52:50;;;;;;;8.30;7.60;;;;;;;14.72;60.32;97010.84;5085800;28;20195;-50
2022/04/27 06:55:18;;;;;;;9.60;7.50;;;;;;;14.96;60.91;97013.59;5064288;28;20222;-51
2022/04/27 06:57:44;;;;;;;8.30;7.50;;;;;;;15.03;60.04;97014.63;5078475;28;20198;-52
2022/04/27 07:00:12;;;;;;;8.50;7.70;;;;;;;14.94;58.93;97012.94;5078901;28;20201;-52
2022/04/27 07:02:39;;;;;;;8.73;7.97;;;;;;;14.82;56.89;97015.03;5079012;28;20197;-51
2022/04/27 07:05:09;;;;;;;8.20;7.50;;;;;;;14.85;58.95;97020.03;5082603;28;20193;-51
2022/04/27 07:07:36;;;;;;;8.30;7.50;;;;;;;15.11;58.74;97019.13;5079093;28;20198;-52
2022/04/27 07:10:08;;;;;;;7.93;7.23;;;;;;;14.97;58.25;97015.28;5078363;28;20335;-51
2022/04/27 07:12:34;;;;;;;8.30;7.60;;;;;;;14.87;59.87;97020.75;5079140;28;20204;-52
2022/04/27 07:15:02;;;;;;;7.97;7.37;;;;;;;15.15;58.35;97015.16;5079889;28;20222;-52
2022/04/27 07:17:28;;;;;;;8.60;7.90;;;;;;;14.90;59.81;97025.75;5082874;28;20638;-51
2022/04/27 07:19:55;;;;;;;8.70;7.93;;;;;;;14.99;58.79;97023.91;5084331;28;20201;-52
2022/04/27 07:22:21;;;;;;;8.52;7.72;;;;;;;15.55;57.90;97017.97;5082909;28;20206;-51
2022/04/27 07:24:49;;;;;;;8.40;7.65;;;;;;;15.50;59.62;97025.59;5081094;28;20197;-51
2022/04/27 07:27:17;;;;;;;7.38;6.78;;;;;;;15.47;56.40;97025.91;5079569;28;20281;-51
2022/04/27 07:29:44;;;;;;;7.85;7.15;;;;;;;15.50;54.54;97030.09;5078798;28;20204;-52
2022/04/27 07:32:10;;;;;;;7.60;7.00;;;;;;;15.64;56.67;97024.13;5077229;28;20202;-51
2022/04/27 07:34:37;;;;;;;8.30;7.50;;;;;;;15.57;55.80;97018.63;5076859;28;20226;-52
2022/04/27 07:37:05;;;;;;;7.93;7.33;;;;;;;15.85;56.72;97033.31;5077506;28;20219;-51
2022/04/27 07:39:32;;;;;;;7.97;7.28;;;;;;;15.68;57.26;97026.28;5077401;28;20191;-52
2022/04/27 07:41:58;;;;;;;8.32;7.63;;;;;;;15.56;56.14;97026.75;5077581;28;20195;-51
2022/04/27 07:44:26;;;;;;;8.20;7.53;;;;;;;16.05;57.82;97031.13;5077098;28;20209;-52
2022/04/27 07:46:52;;;;;;;7.72;7.13;;;;;;;15.70;56.35;97034.09;5064790;28;20206;-51
2022/04/27 07:49:20;;;;;;;7.38;6.78;;;;;;;16.07;54.99;97031.81;5063166;28;20235;-52
2022/04/27 07:51:47;;;;;;;8.50;7.70;;;;;;;16.08;57.17;97037.97;5066364;28;20210;-51
2022/04/27 07:54:13;;;;;;;7.25;6.65;;;;;;;16.51;56.42;97039.44;5068027;28;20238;-52
2022/04/27 07:56:40;;;;;;;8.30;7.50;;;;;;;16.29;55.59;97032.97;5065917;28;20482;-52
2022/04/27 07:59:06;;;;;;;8.05;7.35;;;;;;;16.26;56.57;97041.31;5064036;28;20226;-51
2022/04/27 08:01:34;;;;;;;8.18;7.38;;;;;;;16.28;55.53;97040.13;5065830;28;20199;-52
2022/04/27 08:04:01;;;;;;;8.82;7.60;;;;;;;15.75;56.77;97043.31;5066699;28;20213;-52
2022/04/27 08:06:27;;;;;;;9.48;8.68;;;;;;;15.44;57.82;97045.69;5066060;28;20211;-51
2022/04/27 08:08:53;;;;;;;8.57;7.70;;;;;;;15.46;56.36;97042.88;5063498;28;20554;-51
2022/04/27 08:11:22;;;;;;;9.57;8.63;;;;;;;15.82;57.75;97038.97;5067725;28;20222;-51
2022/04/27 08:13:49;;;;;;;8.65;7.85;;;;;;;16.25;55.68;97032.47;5074546;28;20213;-51
2022/04/27 08:16:15;;;;;;;8.23;7.57;;;;;;;16.73;55.74;97036.88;5062926;28;20202;-52
2022/04/27 08:18:43;;;;;;;9.25;8.38;;;;;;;15.99;56.69;97036.28;5062818;28;20207;-53
2022/04/27 08:21:15;;;;;;;8.70;7.85;;;;;;;16.20;59.09;97041.97;5064004;28;20199;-52
2022/04/27 08:23:42;;;;;;;8.68;7.95;;;;;;;16.77;54.89;97045.38;5063534;28;20273;-52
2022/04/27 08:26:10;;;;;;;8.82;8.05;;;;;;;16.72;56.90;97043.22;5063235;28;20547;-52
2022/04/27 08:28:37;;;;;;;8.13;7.43;;;;;;;16.89;54.18;97038.69;5062939;28;20862;-52
2022/04/27 08:31:04;;;;;;;8.48;7.68;;;;;;;16.75;54.14;97042.91;5063101;28;20223;-52
2022/04/27 08:33:30;;;;;;;9.50;8.60;;;;;;;16.49;53.39;97050.25;5062730;28;20677;-52
2022/04/27 08:35:59;;;;;;;9.77;8.77;;;;;;;15.89;52.77;97039.97;5066777;28;20226;-51
2022/04/27 08:38:26;;;;;;;9.73;8.93;;;;;;;15.81;56.33;97052.47;5066939;28;20209;-51
2022/04/27 08:40:52;;;;;;;10.70;9.77;;;;;;;15.36;54.51;97039.53;5065607;28;20631;-51
2022/04/27 08:43:19;;;;;;;10.10;9.10;;;;;;;15.26;55.71;97036.19;5062537;28;20650;-51
2022/04/27 08:45:46;;;;;;;9.10;8.32;;;;;;;15.90;55.05;97036.31;5062575;28;20199;-51
2022/04/27 08:48:14;;;;;;;9.57;8.68;;;;;;;15.62;54.40;97026.97;5062761;28;20533;-52
2022/04/27 08:50:41;;;;;;;9.23;8.32;;;;;;;15.53;55.81;97038.59;5062642;28;20240;-51
2022/04/27 08:53:09;;;;;;;10.23;9.32;;;;;;;15.89;55.62;97034.63;5067146;28;20249;-51
2022/04/27 08:55:36;;;;;;;9.48;8.50;;;;;;;15.90;57.41;97038.97;5069320;28;20230;-51
2022/04/27 08:58:07;;;;;;;9.93;8.93;;;;;;;15.88;55.58;97032.97;5065136;28;20586;-51
2022/04/27 09:00:35;;;;;;;9.20;8.40;;;;;;;16.58;54.27;97038.59;5065792;28;20195;-51
2022/04/27 09:03:25;;;;;;;9.88;9.05;;;;;;;16.26;53.75;97042.09;5065909;28;20211;-52
2022/04/27 09:05:53;;;;;;;9.73;8.82;;;;;;;16.79;54.72;97041.53;5063512;28;20195;-52
2022/04/27 09:08:21;;;;;;;10.20;9.30;;;;;;;16.49;55.04;97042.25;5063168;28;20225;-52
2022/04/27 09:10:48;;;;;;;9.98;9.07;;;;;;;16.22;57.86;97040.81;5062705;28;20198;-52
2022/04/27 09:13:15;;;;;;;10.40;9.13;;;;;;;16.29;56.18;97039.13;5061437;28;20230;-51
2022/04/27 09:15:41;;;;;;;10.93;9.93;;;;;;;16.20;55.67;97036.63;5063224;28;20218;-52
2022/04/27 09:21:00;;;;;;;10.77;9.68;;;;;;;16.15;56.24;97044.31;5061597;28;20206;-52
2022/04/27 09:23:36;;;;;;;12.07;9.88;;;;;;;16.56;54.68;97037.94;5062551;28;20197;-52
2022/04/27 09:26:15;;;;;;;11.17;10.13;;;;;;;16.34;53.75;97038.59;5061535;28;20675;-52
2022/04/27 09:28:47;;;;;;;9.57;8.68;;;;;;;16.88;55.87;97026.31;5061657;28;20187;-53
2022/04/27 09:31:26;;;;;;;10.75;9.68;;;;;;;17.29;54.84;97024.28;5062819;28;20202;-52
2022/04/27 09:33:58;;;;;;;10.07;9.18;;;;;;;17.40;52.05;97029.22;5061472;28;20179;-52
2022/04/27 09:36:25;;;;;;;10.10;9.18;;;;;;;17.28;52.38;97033.31;5062253;28;20507;-51
2022/04/27 09:38:54;;;;;;;10.55;9.57;;;;;;;16.56;51.48;97035.25;5061826;28;20210;-52
2022/04/27 09:41:41;;;;;;;10.63;9.50;;;;;;;16.46;52.94;97039.94;5061212;28;20217;-52
2022/04/27 09:44:08;;;;;;;11.15;10.05;;;;;;;16.48;52.71;97034.41;5061493;28;20195;-51
2022/04/27 09:46:40;;;;;;;11.07;10.15;;;;;;;16.67;52.66;97036.75;5061808;28;20242;-52
2022/04/27 09:49:11;;;;;;;10.20;9.23;;;;;;;16.31;52.30;97036.28;5061434;28;20255;-51
2022/04/27 09:51:38;;;;;;;10.90;9.90;;;;;;;15.69;53.24;97035.13;5061211;28;20195;-51
2022/04/27 09:54:06;;;;;;;10.45;9.45;;;;;;;15.82;53.86;97044.31;5061506;28;20198;-52
2022/04/27 09:56:37;;;;;;;13.23;9.80;;;;;;;15.69;54.93;97043.13;5060822;28;20218;-52
2022/04/27 09:59:06;;;;;;;10.80;9.70;;;;;;;15.78;53.55;97037.63;5061945;28;20190;-51
2022/04/27 10:01:35;;;;;;;11.25;10.05;;;;;;;15.85;55.16;97035.13;5061600;28;20211;-52
2022/04/27 10:04:04;;;;;;;10.18;9.27;;;;;;;15.99;56.51;97036.28;5061499;28;20218;-52
2022/04/27 10:06:31;;;;;;;11.25;10.05;;;;;;;15.91;52.93;97035.28;5061150;28;20754;-51
2022/04/27 10:08:59;;;;;;;10.38;9.38;;;;;;;16.78;52.02;97037.22;5060821;28;20289;-52
2022/04/27 10:11:28;;;;;;;9.52;8.60;;;;;;;17.38;49.95;97033.94;5060686;28;20588;-52
2022/04/27 10:13:55;;;;;;;9.80;8.90;;;;;;;17.28;48.69;97038.69;5063314;28;20202;-51
2022/04/27 10:16:22;;;;;;;10.55;9.52;;;;;;;16.79;48.80;97043.41;5063402;28;20227;-53
2022/04/27 10:18:48;;;;;;;9.02;8.23;;;;;;;16.67;49.84;97034.91;5069787;28;20200;-53
2022/04/27 10:21:15;;;;;;;9.32;8.52;;;;;;;16.91;49.82;97039.31;5072037;28;20198;-53
2022/04/27 10:23:43;;;;;;;9.27;8.43;;;;;;;17.31;46.94;97028.47;5062209;28;20210;-54
2022/04/27 10:26:11;;;;;;;10.07;8.95;;;;;;;17.69;45.44;97026.75;5062475;28;20534;-54
2022/04/27 10:28:43;;;;;;;9.73;8.75;;;;;;;17.94;47.25;97023.88;5061419;28;20646;-54
2022/04/27 10:31:10;;;;;;;9.07;8.27;;;;;;;18.49;45.33;97032.44;5061067;28;20198;-51
2022/04/27 10:33:41;;;;;;;9.40;8.60;;;;;;;18.77;45.91;97022.78;5061467;28;20191;-52
2022/04/27 10:36:21;;;;;;;9.25;8.45;;;;;;;19.13;43.05;97027.38;5061493;28;20948;-52
2022/04/27 10:39:21;;;;;;;8.50;7.70;;;;;;;18.82;44.26;97028.41;5060924;28;20231;-52
2022/04/27 10:42:32;;;;;;;8.57;7.70;;;;;;;18.57;43.26;97021.66;5060840;28;20538;-52
2022/04/27 10:45:10;;;;;;;8.23;7.53;;;;;;;18.64;44.99;97027.94;5061344;28;20214;-52
2022/04/27 10:47:41;;;;;;;7.80;7.10;;;;;;;18.88;45.49;97024.97;5061164;28;20650;-52
2022/04/27 10:50:23;;;;;;;7.53;6.82;;;;;;;19.10;44.44;97020.53;5060573;28;20918;-51
2022/04/27 10:52:52;;;;;;;8.48;7.68;;;;;;;19.08;43.37;97017.22;5061742;28;20195;-54
2022/04/27 10:55:44;;;;;;;8.43;7.72;;;;;;;18.79;44.21;97020.75;5060557;28;20234;-51
2022/04/27 10:58:15;;;;;;;8.00;7.40;;;;;;;18.92;43.96;97013.91;5060755;28;20209;-51
2022/04/27 11:01:24;;;;;;;8.75;7.93;;;;;;;18.99;45.59;97015.63;5060419;28;20206;-51
2022/04/27 11:04:00;;;;;;;8.15;7.35;;;;;;;18.46;45.02;97024.75;5060747;28;20194;-52
2022/04/27 11:06:26;;;;;;;9.25;8.45;;;;;;;18.84;45.70;97018.34;5060654;28;20182;-51
2022/04/27 11:09:14;;;;;;;8.50;7.78;;;;;;;18.92;44.69;97019.28;5060223;28;20642;-51
2022/04/27 11:11:52;;;;;;;8.07;7.38;;;;;;;18.34;45.69;97023.53;5060435;28;20206;-51
2022/04/27 11:14:20;;;;;;;8.55;7.85;;;;;;;17.55;45.38;97019.47;5060726;28;20222;-52
2022/04/27 11:16:48;;;;;;;8.80;8.00;;;;;;;18.20;47.19;97024.34;5060603;28;20297;-51
2022/04/27 11:19:16;;;;;;;7.80;7.10;;;;;;;18.23;45.70;97024.81;5060823;28;20226;-52
2022/04/27 11:21:43;;;;;;;8.13;7.20;;;;;;;18.12;43.94;97027.09;5063365;28;20191;-52
2022/04/27 11:24:11;;;;;;;7.70;7.10;;;;;;;18.40;46.29;97033.50;5063857;28;20209;-53
2022/04/27 11:26:41;;;;;;;7.85;7.07;;;;;;;18.05;46.14;97021.63;5064019;28;20261;-51
2022/04/27 11:29:08;;;;;;;8.43;7.50;;;;;;;18.16;45.81;97023.88;5065123;28;20194;-52
2022/04/27 11:31:34;;;;;;;8.30;7.60;;;;;;;17.52;45.34;97019.81;5063963;28;20190;-52
2022/04/27 11:34:01;;;;;;;8.23;7.10;;;;;;;17.34;46.37;97021.94;5064113;28;20203;-52
2022/04/27 11:36:29;;;;;;;8.10;7.38;;;;;;;17.02;46.28;97016.75;5063963;28;20227;-51
2022/04/27 11:38:56;;;;;;;7.35;6.75;;;;;;;17.48;47.42;97018.50;5064074;28;20539;-50
2022/04/27 11:41:24;;;;;;;7.82;6.88;;;;;;;17.77;46.68;97018.66;5063922;28;20205;-52
2022/04/27 11:43:54;;;;;;;7.82;7.03;;;;;;;18.04;46.42;97022.63;5064034;28;20836;-51
2022/04/27 11:46:20;;;;;;;7.40;6.80;;;;;;;18.07;46.36;97024.09;5063906;28;20203;-51
2022/04/27 11:48:47;;;;;;;7.68;7.07;;;;;;;17.97;45.54;97023.53;5063791;28;20226;-51
2022/04/27 11:51:14;;;;;;;7.78;7.13;;;;;;;17.56;46.39;97018.50;5063580;28;20294;-51
2022/04/27 11:53:47;;;;;;;7.28;6.68;;;;;;;17.60;46.64;97019.81;5063705;28;20198;-51